createdAt,value
2022-08-22T00:00:15.690Z,99050.22
2022-08-22T00:02:55.439Z,99020.94
2022-08-22T00:03:29.206Z,99053.53
2022-08-22T00:06:30.968Z,99059.56
2022-08-22T00:10:01.449Z,99059.81
2022-08-22T00:13:07.408Z,99054.03
2022-08-22T00:16:14.652Z,99053.78
2022-08-22T00:19:45.506Z,99058.41
2022-08-22T00:22:50.977Z,99057.59
2022-08-22T00:26:03.667Z,99056.19
2022-08-22T00:29:09.094Z,99054.53
2022-08-22T00:32:27.145Z,99058.94
2022-08-22T00:35:44.495Z,99058.88
2022-08-22T00:39:07.152Z,99067.66
2022-08-22T00:42:40.491Z,99065.16
2022-08-22T00:45:52.744Z,99073.63
2022-08-22T00:49:04.100Z,99073.38
2022-08-22T00:52:15.000Z,99074.44
2022-08-22T00:55:17.391Z,99070.06
2022-08-22T00:58:38.405Z,99061.59
2022-08-22T01:01:59.124Z,99060.22
2022-08-22T01:05:19.912Z,99069.56
2022-08-22T01:08:22.339Z,99069.56
2022-08-22T01:12:15.411Z,99072.28
2022-08-22T01:15:22.794Z,99067.06
2022-08-22T01:18:36.781Z,99072.16
2022-08-22T01:22:06.666Z,99071.59
2022-08-22T01:25:37.829Z,99073.44
2022-08-22T01:28:54.577Z,99079.75
2022-08-22T01:32:24.703Z,99080.88
2022-08-22T01:35:32.697Z,99083.63
2022-08-22T01:38:53.071Z,99075.34
2022-08-22T01:42:15.246Z,99071.16
2022-08-22T01:45:17.297Z,99084.50
2022-08-22T01:48:25.247Z,99091.03
2022-08-22T01:51:45.384Z,99081.19
2022-08-22T01:54:59.491Z,99085.50
2022-08-22T01:58:03.886Z,99080.22
2022-08-22T02:01:08.910Z,99076.06
2022-08-22T02:04:29.704Z,99088.00
2022-08-22T02:07:40.354Z,99081.88
2022-08-22T02:10:48.385Z,99085.38
2022-08-22T02:13:50.147Z,99082.22
2022-08-22T02:20:12.254Z,99082.56
2022-08-22T02:23:32.893Z,99075.00
2022-08-22T02:26:40.519Z,99078.72
2022-08-22T02:30:15.020Z,99078.63
2022-08-22T02:33:35.357Z,99077.72
2022-08-22T02:36:43.477Z,99083.56
2022-08-22T02:39:45.471Z,99077.00
2022-08-22T02:42:56.459Z,99084.69
2022-08-22T02:46:12.027Z,99086.00
2022-08-22T02:49:16.968Z,99079.41
2022-08-22T02:52:21.849Z,99091.38
2022-08-22T02:55:42.492Z,99088.78
2022-08-22T02:58:50.452Z,99092.16
2022-08-22T03:01:52.363Z,99098.09
2022-08-22T03:04:59.880Z,99097.50
2022-08-22T03:08:07.498Z,99101.22
2022-08-22T03:11:27.916Z,99107.72
2022-08-22T03:14:34.212Z,99104.13
2022-08-22T03:18:14.923Z,99111.50
2022-08-22T03:21:31.970Z,99110.91
2022-08-22T03:24:37.960Z,99118.50
2022-08-22T03:27:49.489Z,99118.00
2022-08-22T03:30:51.825Z,99133.53
2022-08-22T03:34:12.206Z,99130.00
2022-08-22T03:37:40.611Z,99124.19
2022-08-22T03:41:01.424Z,99129.19
2022-08-22T03:44:26.043Z,99124.66
2022-08-22T03:47:54.332Z,99116.25
2022-08-22T03:51:16.316Z,99128.56
2022-08-22T03:54:18.134Z,99134.25
2022-08-22T03:57:38.773Z,99142.09
2022-08-22T04:00:46.418Z,99136.28
2022-08-22T04:03:54.359Z,99141.28
2022-08-22T04:07:03.038Z,99139.81
2022-08-22T04:10:25.835Z,99134.13
2022-08-22T04:13:27.767Z,99127.56
2022-08-22T04:16:45.773Z,99133.47
2022-08-22T04:19:54.262Z,99144.50
2022-08-22T04:23:02.235Z,99139.00
2022-08-22T04:26:12.927Z,99140.97
2022-08-22T04:29:18.991Z,99138.25
2022-08-22T04:32:26.594Z,99152.16
2022-08-22T04:35:36.506Z,99151.81
2022-08-22T04:38:44.705Z,99153.13
2022-08-22T04:41:49.456Z,99140.28
2022-08-22T04:44:56.184Z,99147.22
2022-08-22T04:48:07.937Z,99138.66
2022-08-22T04:51:16.550Z,99135.75
2022-08-22T04:54:37.622Z,99138.56
2022-08-22T04:57:45.151Z,99137.16
2022-08-22T05:00:49.740Z,99138.56
2022-08-22T05:04:03.157Z,99140.91
2022-08-22T05:07:07.961Z,99142.13
2022-08-22T05:10:12.849Z,99139.97
2022-08-22T05:13:18.332Z,99143.84
2022-08-22T05:16:33.529Z,99137.50
2022-08-22T05:19:38.085Z,99132.13
2022-08-22T05:22:45.167Z,99142.34
2022-08-22T05:25:50.085Z,99147.34
2022-08-22T05:29:00.316Z,99140.59
2022-08-22T05:32:03.710Z,99143.25
2022-08-22T05:35:05.908Z,99145.06
2022-08-22T05:38:10.326Z,99147.34
2022-08-22T05:41:17.484Z,99150.69
2022-08-22T05:44:24.368Z,99142.31
2022-08-22T05:47:29.713Z,99153.59
2022-08-22T05:50:58.590Z,99157.78
2022-08-22T05:54:13.810Z,99155.56
2022-08-22T05:57:24.292Z,99152.06
2022-08-22T06:00:28.599Z,99152.13
2022-08-22T06:03:53.867Z,99149.94
2022-08-22T06:07:03.826Z,99148.56
2022-08-22T06:10:13.761Z,99131.63
2022-08-22T06:13:15.552Z,99145.66
2022-08-22T06:16:39.883Z,99142.09
2022-08-22T06:19:50.855Z,99142.09
2022-08-22T06:22:57.706Z,99145.97
2022-08-22T06:26:00.777Z,99138.56
2022-08-22T06:29:03.212Z,99133.84
2022-08-22T06:32:11.650Z,99140.19
2022-08-22T06:35:16.545Z,99139.91
2022-08-22T06:38:19.641Z,99129.94
2022-08-22T06:41:22.521Z,99137.06
2022-08-22T06:44:27.281Z,99134.72
2022-08-22T06:47:31.582Z,99122.56
2022-08-22T06:50:35.169Z,99133.75
2022-08-22T06:53:42.387Z,99126.59
2022-08-22T06:56:52.646Z,99126.06
2022-08-22T06:59:55.966Z,99125.72
2022-08-22T07:03:00.536Z,99119.09
2022-08-22T07:06:04.631Z,99120.66
2022-08-22T07:09:07.320Z,99115.16
2022-08-22T07:12:18.433Z,99122.72
2022-08-22T07:15:23.188Z,99124.72
2022-08-22T07:18:26.766Z,99135.66
2022-08-22T07:21:30.914Z,99129.63
2022-08-22T07:24:36.646Z,99119.63
2022-08-22T07:27:44.442Z,99132.03
2022-08-22T07:30:56.008Z,99132.66
2022-08-22T07:34:06.846Z,99135.97
2022-08-22T07:37:17.877Z,99142.06
2022-08-22T07:40:25.748Z,99136.25
2022-08-22T07:43:30.695Z,99147.09
2022-08-22T07:46:43.683Z,99144.78
2022-08-22T07:49:53.374Z,99138.59
2022-08-22T07:52:59.159Z,99141.06
2022-08-22T07:56:02.743Z,99129.50
2022-08-22T07:59:12.924Z,99125.19
2022-08-22T08:02:16.799Z,99128.22
2022-08-22T08:05:20.495Z,99141.81
2022-08-22T08:08:25.978Z,99128.13
2022-08-22T08:11:31.032Z,99124.53
2022-08-22T08:14:35.853Z,99125.38
2022-08-22T08:17:38.969Z,99133.97
2022-08-22T08:20:40.800Z,99131.16
2022-08-22T08:23:46.669Z,99117.31
2022-08-22T08:27:11.297Z,99116.66
2022-08-22T08:30:17.306Z,99134.88
2022-08-22T08:33:25.644Z,99135.41
2022-08-22T08:36:31.663Z,99128.75
2022-08-22T08:39:35.858Z,99125.88
2022-08-22T08:43:37.209Z,99118.28
2022-08-22T08:46:55.231Z,99133.47
2022-08-22T08:50:07.277Z,99132.34
2022-08-22T08:53:20.530Z,99119.00
2022-08-22T08:56:50.141Z,99114.22
2022-08-22T09:00:02.414Z,99114.84
2022-08-22T09:03:30.565Z,99104.41
2022-08-22T09:06:42.318Z,99101.63
2022-08-22T09:09:52.679Z,99101.41
2022-08-22T09:13:17.694Z,99100.84
2022-08-22T09:16:25.634Z,99105.97
2022-08-22T09:19:46.237Z,99096.66
2022-08-22T09:22:58.425Z,99105.75
2022-08-22T09:26:05.864Z,99104.25
2022-08-22T09:29:11.663Z,99118.19
2022-08-22T09:32:16.812Z,99117.97
2022-08-22T09:35:24.174Z,99107.06
2022-08-22T09:38:30.980Z,99111.25
2022-08-22T09:41:32.936Z,99112.03
2022-08-22T09:44:34.759Z,99117.53
2022-08-22T09:48:07.036Z,99115.72
2022-08-22T09:51:32.709Z,99118.22
2022-08-22T09:54:57.325Z,99133.25
2022-08-22T09:58:03.559Z,99140.03
2022-08-22T10:01:24.840Z,99129.69
2022-08-22T10:04:28.414Z,99122.72
2022-08-22T10:07:37.021Z,99135.69
2022-08-22T10:10:46.410Z,99124.00
2022-08-22T10:13:57.345Z,99139.56
2022-08-22T10:17:21.783Z,99132.25
2022-08-22T10:20:25.100Z,99138.66
2022-08-22T10:23:38.852Z,99137.28
2022-08-22T10:26:48.404Z,99140.25
2022-08-22T10:30:09.055Z,99142.84
2022-08-22T10:33:14.459Z,99127.88
2022-08-22T10:36:23.680Z,99149.13
2022-08-22T10:39:34.334Z,99139.19
2022-08-22T10:42:48.122Z,99133.44
2022-08-22T10:46:00.040Z,99146.69
2022-08-22T10:49:08.092Z,99138.97
2022-08-22T10:52:16.357Z,99134.22
2022-08-22T10:55:26.506Z,99143.38
2022-08-22T10:58:31.729Z,99141.19
2022-08-22T11:01:41.558Z,99135.59
2022-08-22T11:05:02.818Z,99136.31
2022-08-22T11:08:11.326Z,99146.94
2022-08-22T11:11:33.044Z,99135.81
2022-08-22T11:14:53.695Z,99138.34
2022-08-22T11:18:02.113Z,99144.59
2022-08-22T11:21:18.425Z,99140.97
2022-08-22T11:24:30.029Z,99136.19
2022-08-22T11:28:00.686Z,99128.25
2022-08-22T11:31:07.219Z,99143.66
2022-08-22T11:34:24.980Z,99133.06
2022-08-22T11:37:46.191Z,99134.25
2022-08-22T11:40:52.207Z,99141.34
2022-08-22T11:44:09.333Z,99133.34
2022-08-22T11:47:13.882Z,99142.47
2022-08-22T11:50:22.721Z,99153.47
2022-08-22T11:53:43.399Z,99151.06
2022-08-22T11:56:50.160Z,99150.69
2022-08-22T12:00:02.712Z,99141.41
2022-08-22T12:03:09.352Z,99147.84
2022-08-22T12:06:30.354Z,99144.69
2022-08-22T12:09:43.609Z,99153.81
2022-08-22T12:12:57.843Z,99149.78
2022-08-22T12:16:20.113Z,99149.91
2022-08-22T12:19:28.114Z,99135.50
2022-08-22T12:22:48.690Z,99138.19
2022-08-22T12:25:51.925Z,99141.09
2022-08-22T12:29:18.195Z,99140.44
2022-08-22T12:32:27.695Z,99155.00
2022-08-22T12:35:49.423Z,99139.59
2022-08-22T12:38:54.060Z,99139.47
2022-08-22T12:42:11.268Z,99142.91
2022-08-22T12:45:21.347Z,99145.75
2022-08-22T12:48:44.205Z,99144.53
2022-08-22T12:52:04.466Z,99149.88
2022-08-22T12:55:06.679Z,99145.41
2022-08-22T12:58:23.356Z,99148.97
2022-08-22T13:01:33.869Z,99155.50
2022-08-22T13:04:43.003Z,99140.78
2022-08-22T13:07:50.529Z,99146.97
2022-08-22T13:11:00.903Z,99143.84
2022-08-22T13:15:36.074Z,99154.88
2022-08-22T13:18:44.759Z,99144.06
2022-08-22T13:21:50.812Z,99157.22
2022-08-22T13:24:55.367Z,99152.94
2022-08-22T13:27:59.460Z,99150.59
2022-08-22T13:31:05.026Z,99143.91
2022-08-22T13:34:10.438Z,99158.28
2022-08-22T13:37:15.113Z,99156.47
2022-08-22T13:40:29.399Z,99157.91
2022-08-22T13:43:34.931Z,99161.25
2022-08-22T13:46:52.963Z,99156.72
2022-08-22T13:50:08.466Z,99165.66
2022-08-22T13:53:19.630Z,99164.53
2022-08-22T13:56:24.803Z,99163.16
2022-08-22T13:59:51.708Z,99157.28
2022-08-22T14:02:55.463Z,99160.44
2022-08-22T14:06:32.724Z,99159.94
2022-08-22T14:09:29.573Z,99159.84
2022-08-22T14:12:49.953Z,99162.38
2022-08-22T14:15:58.904Z,99157.31
2022-08-22T14:19:09.286Z,99163.81
2022-08-22T14:22:20.623Z,99158.00
2022-08-22T14:25:36.204Z,99157.31
2022-08-22T14:28:38.313Z,99156.06
2022-08-22T14:31:40.673Z,99152.16
2022-08-22T14:34:45.406Z,99150.72
2022-08-22T14:37:53.203Z,99151.91
2022-08-22T14:41:01.916Z,99149.13
2022-08-22T14:44:28.477Z,99157.81
2022-08-22T14:47:55.275Z,99151.78
2022-08-22T14:51:22.804Z,99151.16
2022-08-22T14:54:29.209Z,99150.06
2022-08-22T14:57:34.118Z,99148.63
2022-08-22T15:00:41.180Z,99145.47
2022-08-22T15:03:43.144Z,99149.53
2022-08-22T15:06:53.068Z,99145.88
2022-08-22T15:09:58.626Z,99138.75
2022-08-22T15:13:03.379Z,99141.19
2022-08-22T15:16:20.743Z,99139.44
2022-08-22T15:19:27.734Z,99137.78
2022-08-22T15:22:29.782Z,99141.59
2022-08-22T15:25:36.537Z,99146.38
2022-08-22T15:28:52.606Z,99153.09
2022-08-22T15:31:57.450Z,99150.88
2022-08-22T15:35:09.011Z,99149.03
2022-08-22T15:38:31.483Z,99148.03
2022-08-22T15:41:36.600Z,99150.38
2022-08-22T15:44:40.603Z,99143.19
2022-08-22T15:47:49.600Z,99151.94
2022-08-22T15:51:02.617Z,99158.69
2022-08-22T15:54:24.454Z,99156.56
2022-08-22T15:57:30.284Z,99155.03
2022-08-22T16:00:35.213Z,99157.56
2022-08-22T16:03:39.153Z,99172.63
2022-08-22T16:06:44.460Z,99164.31
2022-08-22T16:09:53.547Z,99173.50
2022-08-22T16:13:13.776Z,99174.00
2022-08-22T16:16:24.689Z,99169.63
2022-08-22T16:19:30.465Z,99172.56
2022-08-22T16:22:51.137Z,99175.06
2022-08-22T16:25:53.503Z,99187.91
2022-08-22T16:29:13.649Z,99179.56
2022-08-22T16:32:24.073Z,99188.78
2022-08-22T16:35:44.989Z,99188.63
2022-08-22T16:38:49.401Z,99189.38
2022-08-22T16:41:53.301Z,99193.59
2022-08-22T16:44:58.152Z,99191.91
2022-08-22T16:48:13.811Z,99198.28
2022-08-22T16:51:21.302Z,99195.13
2022-08-22T16:54:43.954Z,99195.25
2022-08-22T16:58:04.996Z,99203.91
2022-08-22T17:01:16.683Z,99204.31
2022-08-22T17:04:18.457Z,99208.78
2022-08-22T17:07:23.582Z,99201.13
2022-08-22T17:10:49.358Z,99201.72
2022-08-22T17:13:54.929Z,99202.38
2022-08-22T17:17:15.992Z,99199.72
2022-08-22T17:20:20.804Z,99196.47
2022-08-22T17:23:40.747Z,99206.44
2022-08-22T17:26:46.849Z,99201.00
2022-08-22T17:29:58.817Z,99209.03
2022-08-22T17:33:14.352Z,99214.66
2022-08-22T17:36:26.818Z,99210.53
2022-08-22T17:39:55.631Z,99213.63
2022-08-22T17:43:10.314Z,99217.75
2022-08-22T17:46:33.309Z,99222.22
2022-08-22T17:49:41.237Z,99222.50
2022-08-22T17:52:55.200Z,99228.84
2022-08-22T17:56:00.440Z,99221.47
2022-08-22T17:59:24.369Z,99226.16
2022-08-22T18:02:35.145Z,99226.75
2022-08-22T18:05:49.812Z,99230.34
2022-08-22T18:09:15.211Z,99237.50
2022-08-22T18:12:17.087Z,99246.31
2022-08-22T18:15:48.873Z,99237.25
2022-08-22T18:19:12.256Z,99236.16
2022-08-22T18:22:53.047Z,99237.25
2022-08-22T18:26:12.301Z,99234.22
2022-08-22T18:29:21.339Z,99232.84
2022-08-22T18:32:47.798Z,99245.78
2022-08-22T18:35:58.845Z,99240.56
2022-08-22T18:39:03.710Z,99245.50
2022-08-22T18:42:05.739Z,99238.91
2022-08-22T18:45:18.686Z,99241.94
2022-08-22T18:48:27.066Z,99243.03
2022-08-22T18:51:32.597Z,99244.41
2022-08-22T18:54:46.328Z,99247.97
2022-08-22T18:58:10.021Z,99248.25
2022-08-22T19:01:20.663Z,99248.50
2022-08-22T19:04:33.052Z,99253.75
2022-08-22T19:07:55.507Z,99260.88
2022-08-22T19:11:05.518Z,99258.13
2022-08-22T19:14:18.371Z,99262.25
2022-08-22T19:17:20.933Z,99256.75
2022-08-22T19:20:46.934Z,99258.13
2022-08-22T19:23:50.924Z,99263.56
2022-08-22T19:27:12.545Z,99259.69
2022-08-22T19:30:33.063Z,99267.66
2022-08-22T19:33:43.101Z,99267.38
2022-08-22T19:37:08.371Z,99262.41
2022-08-22T19:40:12.137Z,99265.16
2022-08-22T19:43:29.598Z,99269.56
2022-08-22T19:46:36.810Z,99261.84
2022-08-22T19:49:42.997Z,99266.78
2022-08-22T19:52:57.978Z,99269.00
2022-08-22T19:56:04.927Z,99271.16
2022-08-22T19:59:26.445Z,99273.34
2022-08-22T20:02:47.405Z,99276.06
2022-08-22T20:06:02.154Z,99275.47
2022-08-22T20:09:17.069Z,99272.66
2022-08-22T20:12:22.160Z,99275.94
2022-08-22T20:15:28.033Z,99273.44
2022-08-22T20:18:53.517Z,99280.06
2022-08-22T20:22:03.817Z,99277.53
2022-08-22T20:25:16.863Z,99281.66
2022-08-22T20:28:47.414Z,99276.41
2022-08-22T20:31:55.548Z,99280.53
2022-08-22T20:35:03.110Z,99283.00
2022-08-22T20:38:11.700Z,99287.09
2022-08-22T20:41:32.268Z,99285.41
2022-08-22T20:44:41.795Z,99286.50
2022-08-22T20:47:49.559Z,99284.31
2022-08-22T20:50:51.631Z,99290.06
2022-08-22T20:53:58.113Z,99294.41
2022-08-22T20:57:02.120Z,99301.22
2022-08-22T21:00:12.506Z,99290.50
2022-08-22T21:03:32.828Z,99298.75
2022-08-22T21:06:36.106Z,99302.53
2022-08-22T21:09:56.858Z,99304.19
2022-08-22T21:13:12.138Z,99304.69
2022-08-22T21:16:16.073Z,99309.03
2022-08-22T21:19:25.353Z,99309.03
2022-08-22T21:22:29.069Z,99310.03
2022-08-22T21:25:32.044Z,99308.41
2022-08-22T21:28:35.705Z,99312.75
2022-08-22T21:31:51.517Z,99319.28
2022-08-22T21:34:53.925Z,99323.06
2022-08-22T21:37:56.246Z,99317.53
2022-08-22T21:41:02.121Z,99330.16
2022-08-22T21:44:19.313Z,99331.28
2022-08-22T21:47:30.794Z,99333.44
2022-08-22T21:50:41.349Z,99340.28
2022-08-22T21:53:43.106Z,99344.94
2022-08-22T21:56:44.952Z,99349.53
2022-08-22T21:59:58.859Z,99357.41
2022-08-22T22:03:02.906Z,99356.78
2022-08-22T22:06:05.730Z,99356.16
2022-08-22T22:09:09.962Z,99358.69
2022-08-22T22:12:13.779Z,99359.72
2022-08-22T22:15:17.628Z,99362.09
2022-08-22T22:18:24.447Z,99367.94
2022-08-22T22:21:26.343Z,99367.63
2022-08-22T22:24:28.075Z,99376.03
2022-08-22T22:27:29.912Z,99367.56
2022-08-22T22:30:31.766Z,99378.53
2022-08-22T22:33:35.620Z,99377.06
2022-08-22T22:36:37.592Z,99379.81
2022-08-22T22:39:39.394Z,99377.28
2022-08-22T22:42:41.489Z,99379.97
2022-08-22T22:45:43.303Z,99387.28
2022-08-22T22:48:45.212Z,99394.69
2022-08-22T22:51:47.039Z,99388.13
2022-08-22T22:54:48.767Z,99398.50
2022-08-22T22:57:58.928Z,99396.84
2022-08-22T23:01:21.444Z,99389.97
2022-08-22T23:04:23.388Z,99384.69
2022-08-22T23:07:25.839Z,99398.28
2022-08-22T23:10:28.534Z,99392.19
2022-08-22T23:13:30.270Z,99387.97
2022-08-22T23:16:39.327Z,99391.38
2022-08-22T23:19:41.490Z,99386.09
2022-08-22T23:22:45.420Z,99390.66
2022-08-22T23:25:47.210Z,99394.63
2022-08-22T23:28:49.267Z,99396.19
2022-08-22T23:31:55.669Z,99395.78
2022-08-22T23:34:57.781Z,99402.25
2022-08-22T23:37:59.655Z,99407.38
2022-08-22T23:41:09.570Z,99408.38
2022-08-22T23:44:13.699Z,99418.41
2022-08-22T23:47:15.977Z,99419.72
2022-08-22T23:50:17.776Z,99408.44
2022-08-22T23:53:19.730Z,99423.69
2022-08-22T23:56:32.670Z,99422.53
2022-08-22T23:59:35.829Z,99429.56
